Time;durP1;ratioP1;P1;durP2;ratioP2;P2;SDS_P1;SDS_P2;PMS_P1;PMS_P2;Temp;Humidity;BMP_temperature;BMP_pressure;BME280_temperature;BME280_humidity;BME280_pressure;Samples;Min_cycle;Max_cycle;Signal;HPM_P1;HPM_P2
2022/05/29 00:02:12;;;;;;;6.35;3.47;;;;;;;;;;5066632;28;20028;-58
2022/05/29 00:04:41;;;;;;;5.65;4.28;;;;;;;;;;5069112;28;20516;-58
2022/05/29 00:07:11;;;;;;;6.68;4.53;;;;;;;;;;5066748;28;20017;-58
2022/05/29 00:09:41;;;;;;;;;;;;;;;;;;5073225;28;20039;-58
2022/05/29 00:12:07;;;;;;;;;;;;;;;;;;5068663;28;20356;-58
2022/05/29 00:14:33;;;;;;;4.93;3.08;;;;;;;;;;5067250;28;19986;-58
2022/05/29 00:16:59;;;;;;;4.45;2.97;;;;;;;;;;5067929;28;20028;-58
2022/05/29 00:19:25;;;;;;;5.25;3.80;;;;;;;;;;5075047;28;20098;-58
2022/05/29 00:21:51;;;;;;;5.53;3.10;;;;;;;;;;5066566;28;20027;-58
2022/05/29 00:24:16;;;;;;;4.22;2.80;;;;;;;;;;5070096;28;20375;-58
2022/05/29 00:26:42;;;;;;;6.18;3.50;;;;;;;;;;5067943;28;20077;-58
2022/05/29 00:29:07;;;;;;;7.22;3.60;;;;;;;;;;5070577;28;20020;-58
2022/05/29 00:31:33;;;;;;;5.65;3.72;;;;;;;;;;5067971;28;20016;-58
2022/05/29 00:33:59;;;;;;;5.53;3.72;;;;;;;;;;5066425;28;20039;-58
2022/05/29 00:36:25;;;;;;;5.75;3.67;;;;;;;;;;5066892;28;20024;-58
2022/05/29 00:38:50;;;;;;;7.95;3.80;;;;;;;;;;5070378;28;20467;-58
2022/05/29 00:41:21;;;;;;;6.60;3.80;;;;;;;;;;5075375;28;20023;-58
2022/05/29 00:44:05;;;;;;;5.00;3.50;;;;;;;;;;5067682;28;20174;-58
2022/05/29 00:46:32;;;;;;;4.88;3.42;;;;;;;;;;5069587;28;20306;-58
2022/05/29 00:48:57;;;;;;;4.65;3.50;;;;;;;;;;5067042;28;20035;-58
2022/05/29 00:51:23;;;;;;;7.13;4.40;;;;;;;;;;5059958;28;20029;-58
2022/05/29 00:53:49;;;;;;;6.40;4.22;;;;;;;;;;5060698;28;20470;-57
2022/05/29 00:56:15;;;;;;;8.05;4.15;;;;;;;;;;5061211;28;20033;-57
2022/05/29 00:58:41;;;;;;;9.85;4.50;;;;;;;;;;5063630;28;20111;-58
2022/05/29 01:01:06;;;;;;;7.35;5.07;;;;;;;;;;5067904;28;20484;-58
2022/05/29 01:03:32;;;;;;;9.40;4.80;;;;;;;;;;5068384;28;20021;-59
2022/05/29 01:05:58;;;;;;;6.80;4.85;;;;;;;;;;5065533;28;20025;-58
2022/05/29 01:08:33;;;;;;;10.38;4.50;;;;;;;;;;5068495;28;20117;-58
2022/05/29 01:11:38;;;;;;;8.75;4.88;;;;;;;;;;5057673;28;20035;-58
2022/05/29 01:14:16;;;;;;;5.93;4.38;;;;;;;;;;5064597;28;20115;-57
2022/05/29 01:17:08;;;;;;;6.97;3.85;;;;;;;;;;5070621;28;20069;-57
2022/05/29 01:20:01;;;;;;;5.50;3.88;;;;;;;;;;5066662;28;20032;-57
2022/05/29 01:22:35;;;;;;;8.30;3.83;;;;;;;;;;5065688;28;20028;-58
2022/05/29 01:25:28;;;;;;;7.75;3.53;;;;;;;;;;5065105;28;20193;-57
2022/05/29 01:28:05;;;;;;;7.63;4.13;;;;;;;;;;5066519;28;20031;-57
2022/05/29 01:30:37;;;;;;;11.57;4.20;;;;;;;;;;5066662;28;20024;-57
2022/05/29 01:33:11;;;;;;;7.75;4.13;;;;;;;;;;5066595;28;20080;-57
2022/05/29 01:35:47;;;;;;;5.53;3.55;;;;;;;;;;5059479;28;20135;-58
2022/05/29 01:38:22;;;;;;;5.75;3.83;;;;;;;;;;5074144;28;20429;-58
2022/05/29 01:40:53;;;;;;;9.80;3.50;;;;;;;;;;5067662;28;20396;-58
2022/05/29 01:43:24;;;;;;;6.32;3.42;;;;;;;;;;5065309;28;20459;-58
2022/05/29 01:46:11;;;;;;;6.32;3.65;;;;;;;;;;5063821;28;20514;-58
2022/05/29 01:48:50;;;;;;;5.30;3.38;;;;;;;;;;5061742;28;20020;-58
2022/05/29 01:51:21;;;;;;;7.55;3.75;;;;;;;;;;5061333;28;20279;-58
2022/05/29 01:53:52;;;;;;;7.72;3.80;;;;;;;;;;5064972;28;20024;-57
2022/05/29 01:56:31;;;;;;;4.80;3.42;;;;;;;;;;5067138;28;20086;-58
2022/05/29 01:59:10;;;;;;;7.30;3.90;;;;;;;;;;5062591;28;20046;-58
2022/05/29 02:01:41;;;;;;;7.68;3.33;;;;;;;;;;5069316;28;20493;-57
2022/05/29 02:04:13;;;;;;;5.50;3.35;;;;;;;;;;5069551;28;20031;-57
2022/05/29 02:09:31;;;;;;;6.22;4.22;;;;;;;;;;5076045;28;20031;-57
2022/05/29 02:12:00;;;;;;;6.20;4.18;;;;;;;;;;5072539;28;20021;-57
2022/05/29 02:14:34;;;;;;;11.30;4.35;;;;;;;;;;5066760;28;20044;-57
2022/05/29 02:17:11;;;;;;;7.78;4.32;;;;;;;;;;5073611;28;20490;-57
2022/05/29 02:20:01;;;;;;;7.47;4.38;;;;;;;;;;5074778;28;20028;-57
2022/05/29 02:22:29;;;;;;;6.25;3.58;;;;;;;;;;5068562;28;20610;-57
2022/05/29 02:25:02;;;;;;;6.57;4.03;;;;;;;;;;5072411;28;20033;-58
2022/05/29 02:27:34;;;;;;;6.28;3.65;;;;;;;;;;5071673;28;20024;-57
2022/05/29 02:30:02;;;;;;;8.07;3.78;;;;;;;;;;5072179;28;20031;-57
2022/05/29 02:32:46;;;;;;;5.65;3.40;;;;;;;;;;5064673;28;20082;-57
2022/05/29 02:35:23;;;;;;;6.18;3.50;;;;;;;;;;5065644;28;20028;-58
2022/05/29 02:38:20;;;;;;;6.10;3.67;;;;;;;;;;5072738;28;20028;-57
2022/05/29 02:41:23;;;;;;;6.85;3.70;;;;;;;;;;5055216;28;20028;-58
2022/05/29 02:44:00;;;;;;;5.72;3.42;;;;;;;;;;5053542;28;20119;-57
2022/05/29 02:46:40;;;;;;;8.50;3.63;;;;;;;;;;5073063;28;20418;-57
2022/05/29 02:49:20;;;;;;;5.55;3.50;;;;;;;;;;5069802;28;20024;-57
2022/05/29 02:51:48;;;;;;;6.85;4.05;;;;;;;;;;5061886;28;20103;-58
2022/05/29 02:54:25;;;;;;;8.82;3.42;;;;;;;;;;5061338;28;20051;-57
2022/05/29 02:56:52;;;;;;;4.90;3.83;;;;;;;;;;5061257;28;20119;-58
2022/05/29 02:59:18;;;;;;;5.32;3.70;;;;;;;;;;5071393;28;20085;-58
2022/05/29 03:02:01;;;;;;;6.85;4.28;;;;;;;;;;5068547;28;20551;-57
2022/05/29 03:04:45;;;;;;;8.27;4.80;;;;;;;;;;5073588;28;20028;-58
2022/05/29 03:07:45;;;;;;;10.93;6.03;;;;;;;;;;5071682;28;20093;-58
2022/05/29 03:10:10;;;;;;;7.05;5.10;;;;;;;;;;5071146;28;20073;-58
2022/05/29 03:13:01;;;;;;;6.32;4.85;;;;;;;;;;5071187;28;20112;-58
2022/05/29 03:15:53;;;;;;;7.00;4.18;;;;;;;;;;5068863;28;20052;-58
2022/05/29 03:18:50;;;;;;;9.55;4.70;;;;;;;;;;5067384;28;20051;-59
2022/05/29 03:22:06;;;;;;;7.30;4.70;;;;;;;;;;5069007;28;20108;-58
2022/05/29 03:24:50;;;;;;;9.82;4.32;;;;;;;;;;5024641;28;20032;-58
2022/05/29 03:27:26;;;;;;;8.57;4.60;;;;;;;;;;5068590;28;20038;-58
2022/05/29 03:29:59;;;;;;;6.82;4.45;;;;;;;;;;5068973;28;20057;-59
2022/05/29 03:32:25;;;;;;;8.50;4.75;;;;;;;;;;5066652;28;20482;-58
2022/05/29 03:34:53;;;;;;;7.30;4.47;;;;;;;;;;5067692;28;20024;-58
2022/05/29 03:37:18;;;;;;;9.07;4.90;;;;;;;;;;5069614;28;20490;-58
2022/05/29 03:39:44;;;;;;;6.47;4.60;;;;;;;;;;5072482;28;20104;-58
2022/05/29 03:42:09;;;;;;;7.78;5.30;;;;;;;;;;5061943;28;20169;-58
2022/05/29 03:44:35;;;;;;;10.38;4.97;;;;;;;;;;5070881;28;20048;-58
2022/05/29 03:47:00;;;;;;;7.65;4.88;;;;;;;;;;5052646;28;20135;-58
2022/05/29 03:49:26;;;;;;;6.50;4.53;;;;;;;;;;5062743;28;20039;-58
2022/05/29 03:51:51;;;;;;;6.97;5.82;;;;;;;;;;5062756;28;20021;-58
2022/05/29 03:54:17;;;;;;;10.13;4.95;;;;;;;;;;5063723;28;20024;-58
2022/05/29 03:56:43;;;;;;;9.02;4.90;;;;;;;;;;5063937;28;20503;-58
2022/05/29 03:59:09;;;;;;;7.50;4.88;;;;;;;;;;5070695;28;20059;-58
2022/05/29 04:01:35;;;;;;;8.82;4.93;;;;;;;;;;5070095;28;20055;-58
2022/05/29 04:04:01;;;;;;;8.30;4.63;;;;;;;;;;5068042;28;20028;-58
2022/05/29 04:06:28;;;;;;;9.85;5.53;;;;;;;;;;5070178;28;20107;-58
2022/05/29 04:14:24;;;;;;;7.68;4.90;;;;;;;;;;5068182;28;20170;-58
2022/05/29 04:16:50;;;;;;;8.82;5.43;;;;;;;;;;5070997;28;20508;-58
2022/05/29 04:19:16;;;;;;;11.68;6.47;;;;;;;;;;5069672;28;20024;-58
2022/05/29 04:21:41;;;;;;;9.32;5.50;;;;;;;;;;5065415;28;20016;-58
2022/05/29 04:24:07;;;;;;;8.25;5.47;;;;;;;;;;5067770;28;20387;-58
2022/05/29 04:26:34;;;;;;;9.02;5.95;;;;;;;;;;5069378;28;20040;-58
2022/05/29 04:29:01;;;;;;;7.75;5.30;;;;;;;;;;5068139;28;20392;-58
2022/05/29 04:31:27;;;;;;;12.00;5.55;;;;;;;;;;5077195;28;20047;-58
2022/05/29 04:33:52;;;;;;;8.45;5.32;;;;;;;;;;5068935;28;20068;-58
2022/05/29 04:36:18;;;;;;;9.98;5.43;;;;;;;;;;5066600;28;20020;-58
2022/05/29 04:38:43;;;;;;;8.60;5.88;;;;;;;;;;5064155;28;20021;-58
2022/05/29 04:41:09;;;;;;;8.15;5.28;;;;;;;;;;5073586;28;20024;-58
2022/05/29 04:43:35;;;;;;;8.07;5.15;;;;;;;;;;5070215;28;20031;-58
2022/05/29 04:46:01;;;;;;;9.10;5.40;;;;;;;;;;5058839;28;20051;-58
2022/05/29 04:48:27;;;;;;;10.45;5.32;;;;;;;;;;5062055;28;20029;-58
2022/05/29 04:51:00;;;;;;;12.07;5.53;;;;;;;;;;5061386;28;20162;-58
2022/05/29 04:53:30;;;;;;;11.50;5.53;;;;;;;;;;5063511;28;20032;-58
2022/05/29 04:55:57;;;;;;;8.10;5.47;;;;;;;;;;5063817;28;20024;-58
2022/05/29 04:58:24;;;;;;;7.70;5.13;;;;;;;;;;5071898;28;20501;-58
2022/05/29 05:00:56;;;;;;;9.48;5.65;;;;;;;;;;5062371;28;20134;-58
2022/05/29 05:03:21;;;;;;;9.25;5.80;;;;;;;;;;5069762;28;20116;-59
2022/05/29 05:05:47;;;;;;;15.80;5.78;;;;;;;;;;5068534;28;20099;-59
2022/05/29 05:08:12;;;;;;;8.23;5.20;;;;;;;;;;5070252;28;20074;-59
2022/05/29 05:10:40;;;;;;;9.10;5.15;;;;;;;;;;5070367;28;20028;-59
2022/05/29 05:13:05;;;;;;;7.68;5.18;;;;;;;;;;5070114;28;20023;-59
2022/05/29 05:15:31;;;;;;;8.05;5.20;;;;;;;;;;5065381;28;20037;-59
2022/05/29 05:17:56;;;;;;;9.15;5.25;;;;;;;;;;5069854;28;20448;-59
2022/05/29 05:20:21;;;;;;;7.72;5.40;;;;;;;;;;5069997;28;20020;-59
2022/05/29 05:22:47;;;;;;;8.38;5.72;;;;;;;;;;5072577;28;20020;-58
2022/05/29 05:25:14;;;;;;;7.20;5.03;;;;;;;;;;5065710;28;20460;-58
2022/05/29 05:27:39;;;;;;;9.07;5.60;;;;;;;;;;5068723;28;20507;-58
2022/05/29 05:30:05;;;;;;;10.00;5.90;;;;;;;;;;5068092;28;20028;-60
2022/05/29 05:32:32;;;;;;;10.88;5.72;;;;;;;;;;5073050;28;20337;-58
2022/05/29 05:35:02;;;;;;;9.00;5.18;;;;;;;;;;5067855;28;20024;-59
2022/05/29 05:37:28;;;;;;;9.95;6.40;;;;;;;;;;5069603;28;20052;-59
2022/05/29 05:39:53;;;;;;;13.75;6.53;;;;;;;;;;5074990;28;20062;-59
2022/05/29 05:42:18;;;;;;;8.32;5.80;;;;;;;;;;5071954;28;20487;-59
2022/05/29 05:44:44;;;;;;;8.80;6.05;;;;;;;;;;5064129;28;20029;-59
2022/05/29 05:47:09;;;;;;;12.27;6.30;;;;;;;;;;5062776;28;20064;-59
2022/05/29 05:49:36;;;;;;;16.15;6.43;;;;;;;;;;5067834;28;20028;-59
2022/05/29 05:52:02;;;;;;;10.25;5.75;;;;;;;;;;5065537;28;20126;-59
2022/05/29 05:54:30;;;;;;;9.10;5.78;;;;;;;;;;5066416;28;20132;-58
2022/05/29 05:56:56;;;;;;;11.63;5.60;;;;;;;;;;5073390;28;20024;-58
2022/05/29 05:59:21;;;;;;;11.63;6.43;;;;;;;;;;5075992;28;20036;-58
2022/05/29 06:01:46;;;;;;;9.00;5.90;;;;;;;;;;5073010;28;20496;-59
2022/05/29 06:04:12;;;;;;;9.48;5.78;;;;;;;;;;5070960;28;20351;-59
2022/05/29 06:06:37;;;;;;;7.88;5.72;;;;;;;;;;5071434;28;20048;-59
2022/05/29 06:09:03;;;;;;;11.23;6.18;;;;;;;;;;5073309;28;20042;-58
2022/05/29 06:11:29;;;;;;;8.95;5.82;;;;;;;;;;5073361;28;20122;-59
2022/05/29 06:13:56;;;;;;;9.43;5.53;;;;;;;;;;5068171;28;20528;-59
2022/05/29 06:16:22;;;;;;;10.02;5.30;;;;;;;;;;5070130;28;20052;-59
2022/05/29 06:18:47;;;;;;;8.30;5.18;;;;;;;;;;5072502;28;20063;-59
2022/05/29 06:21:14;;;;;;;6.25;4.60;;;;;;;;;;5075630;28;20047;-59
2022/05/29 06:23:40;;;;;;;10.30;4.95;;;;;;;;;;5074124;28;20035;-59
2022/05/29 06:26:13;;;;;;;8.00;4.00;;;;;;;;;;5067973;28;20028;-59
2022/05/29 06:28:40;;;;;;;5.40;3.92;;;;;;;;;;5071555;28;20283;-59
2022/05/29 06:31:08;;;;;;;5.07;4.00;;;;;;;;;;5063565;28;20095;-59
2022/05/29 06:33:34;;;;;;;5.95;4.05;;;;;;;;;;5080066;28;20074;-59
2022/05/29 06:36:12;;;;;;;8.05;5.03;;;;;;;;;;5068453;28;20021;-59
2022/05/29 06:38:37;;;;;;;7.50;4.25;;;;;;;;;;5072425;28;20032;-59
2022/05/29 06:41:10;;;;;;;6.95;4.18;;;;;;;;;;5069701;28;20020;-58
2022/05/29 06:43:36;;;;;;;6.38;4.05;;;;;;;;;;5070072;28;20115;-58
2022/05/29 06:46:03;;;;;;;6.35;3.45;;;;;;;;;;5061887;28;20025;-58
2022/05/29 06:48:31;;;;;;;7.15;4.32;;;;;;;;;;5065528;28;20029;-58
2022/05/29 06:51:02;;;;;;;7.13;3.80;;;;;;;;;;5065955;28;20040;-58
2022/05/29 06:53:27;;;;;;;5.95;3.17;;;;;;;;;;5065581;28;20017;-58
2022/05/29 06:55:54;;;;;;;6.45;3.72;;;;;;;;;;5071421;28;20050;-58
2022/05/29 06:58:20;;;;;;;7.57;3.65;;;;;;;;;;5071932;28;20024;-58
2022/05/29 07:08:58;;;;;;;6.80;4.25;;;;;;;;;;5068544;28;20093;-58
2022/05/29 07:11:26;;;;;;;5.78;3.53;;;;;;;;;;5068611;28;20032;-58
2022/05/29 07:13:52;;;;;;;10.20;4.03;;;;;;;;;;5069317;28;20107;-58
2022/05/29 07:16:17;;;;;;;5.47;3.72;;;;;;;;;;5066433;28;20107;-58
2022/05/29 07:18:43;;;;;;;7.15;3.90;;;;;;;;;;5072887;28;20040;-58
2022/05/29 07:21:09;;;;;;;4.57;3.88;;;;;;;;;;5069242;28;20479;-59
2022/05/29 07:23:36;;;;;;;8.32;3.92;;;;;;;;;;5067565;28;20025;-58
2022/05/29 07:26:03;;;;;;;9.50;3.85;;;;;;;;;;5072297;28;20051;-58
2022/05/29 07:28:29;;;;;;;11.10;4.13;;;;;;;;;;5069144;28;20031;-58
2022/05/29 07:30:55;;;;;;;6.38;4.45;;;;;;;;;;5066028;28;20025;-58
2022/05/29 07:33:21;;;;;;;5.55;4.00;;;;;;;;;;5068975;28;20021;-58
2022/05/29 07:35:47;;;;;;;8.77;5.05;;;;;;;;;;5072840;28;20118;-58
2022/05/29 07:38:12;;;;;;;8.85;4.88;;;;;;;;;;5079063;28;20522;-57
2022/05/29 07:40:38;;;;;;;8.80;4.80;;;;;;;;;;5070678;28;20345;-58
2022/05/29 07:43:19;;;;;;;8.45;4.97;;;;;;;;;;5060935;28;20013;-58
2022/05/29 07:45:54;;;;;;;13.95;6.00;;;;;;;;;;5063687;28;20418;-58
2022/05/29 07:48:23;;;;;;;8.70;5.20;;;;;;;;;;5064204;28;20059;-58
2022/05/29 07:50:50;;;;;;;8.85;5.25;;;;;;;;;;5062718;28;20036;-57
2022/05/29 07:53:16;;;;;;;6.63;4.72;;;;;;;;;;5069987;28;20128;-58
2022/05/29 07:55:43;;;;;;;7.03;5.10;;;;;;;;;;5071853;28;20416;-58
2022/05/29 07:58:10;;;;;;;7.15;4.65;;;;;;;;;;5070903;28;20028;-57
2022/05/29 08:00:36;;;;;;;12.30;5.80;;;;;;;;;;5069574;28;20052;-59
2022/05/29 08:03:02;;;;;;;5.22;4.30;;;;;;;;;;5068796;28;20028;-59
2022/05/29 08:05:31;;;;;;;6.35;4.30;;;;;;;;;;5065912;28;20182;-58
2022/05/29 08:07:57;;;;;;;7.88;4.65;;;;;;;;;;5069803;28;20031;-58
2022/05/29 08:10:23;;;;;;;10.05;4.88;;;;;;;;;;5064403;28;20353;-59
2022/05/29 08:12:49;;;;;;;7.97;4.90;;;;;;;;;;5070979;28;20120;-59
2022/05/29 08:15:14;;;;;;;11.40;5.05;;;;;;;;;;5073964;28;20525;-59
2022/05/29 08:17:41;;;;;;;10.38;5.15;;;;;;;;;;5072178;28;20024;-59
2022/05/29 08:20:09;;;;;;;6.72;4.93;;;;;;;;;;5067882;28;20034;-59
2022/05/29 08:22:34;;;;;;;10.73;5.40;;;;;;;;;;5067891;28;20017;-59
2022/05/29 08:30:37;;;;;;;7.13;5.28;;;;;;;;;;5062561;28;20098;-58
2022/05/29 08:33:05;;;;;;;10.20;5.78;;;;;;;;;;5068563;28;20104;-58
2022/05/29 08:35:31;;;;;;;9.80;5.55;;;;;;;;;;5070786;28;20028;-58
2022/05/29 08:37:57;;;;;;;9.40;5.82;;;;;;;;;;5066795;28;20024;-58
2022/05/29 08:40:23;;;;;;;8.20;6.72;;;;;;;;;;5067274;28;20019;-59
2022/05/29 08:42:49;;;;;;;10.70;6.00;;;;;;;;;;5061432;28;20035;-59
2022/05/29 08:45:16;;;;;;;9.88;6.07;;;;;;;;;;5063264;28;20020;-59
2022/05/29 08:47:45;;;;;;;9.70;6.30;;;;;;;;;;5061789;28;20028;-59
2022/05/29 08:50:21;;;;;;;10.40;6.40;;;;;;;;;;5057496;28;20395;-59
2022/05/29 08:53:04;;;;;;;9.55;5.07;;;;;;;;;;5068081;28;20274;-59
2022/05/29 08:55:49;;;;;;;12.20;5.75;;;;;;;;;;5068603;28;20379;-60
2022/05/29 08:58:23;;;;;;;9.68;5.47;;;;;;;;;;5066731;28;20024;-59
2022/05/29 09:01:09;;;;;;;8.48;4.47;;;;;;;;;;5069772;28;20471;-59
2022/05/29 09:03:47;;;;;;;11.80;3.50;;;;;;;;;;5069354;28;20024;-59
2022/05/29 09:06:18;;;;;;;3.92;3.28;;;;;;;;;;5060679;28;20021;-59
2022/05/29 09:08:53;;;;;;;4.75;3.50;;;;;;;;;;5060481;28;20094;-60
2022/05/29 09:11:42;;;;;;;11.75;4.63;;;;;;;;;;5050405;28;20051;-59
2022/05/29 09:14:07;;;;;;;6.40;4.63;;;;;;;;;;5063499;28;20505;-59
2022/05/29 09:16:40;;;;;;;9.15;4.65;;;;;;;;;;5073470;28;20029;-59
2022/05/29 09:19:51;;;;;;;6.75;4.50;;;;;;;;;;5072934;28;20024;-59
2022/05/29 09:22:28;;;;;;;10.45;4.22;;;;;;;;;;5066994;28;20406;-59
2022/05/29 09:25:06;;;;;;;5.97;3.72;;;;;;;;;;5075497;28;20074;-59
2022/05/29 09:27:33;;;;;;;10.90;5.43;;;;;;;;;;5070188;28;20017;-59
2022/05/29 09:29:58;;;;;;;3.95;3.42;;;;;;;;;;5077518;28;20505;-59
2022/05/29 09:32:28;;;;;;;5.32;3.50;;;;;;;;;;5076988;28;20016;-59
2022/05/29 09:35:06;;;;;;;4.63;3.30;;;;;;;;;;5069754;28;20392;-59
2022/05/29 09:38:03;;;;;;;7.70;3.20;;;;;;;;;;5072262;28;20877;-59
2022/05/29 09:40:39;;;;;;;7.97;3.58;;;;;;;;;;5059152;28;20032;-59
2022/05/29 09:43:23;;;;;;;6.43;4.18;;;;;;;;;;5061905;28;20025;-59
2022/05/29 09:45:50;;;;;;;7.63;4.78;;;;;;;;;;5066265;28;20078;-59
2022/05/29 09:51:35;;;;;;;7.35;4.40;;;;;;;;;;5069011;28;20066;-60
2022/05/29 09:54:05;;;;;;;12.30;4.32;;;;;;;;;;5067230;28;20032;-60
2022/05/29 09:56:33;;;;;;;8.40;4.97;;;;;;;;;;5072758;28;20021;-60
2022/05/29 09:59:05;;;;;;;5.32;3.95;;;;;;;;;;5070984;28;20047;-60
2022/05/29 10:01:42;;;;;;;7.70;4.10;;;;;;;;;;5070154;28;20047;-60
2022/05/29 10:04:20;;;;;;;5.90;3.95;;;;;;;;;;5073469;28;20052;-61
2022/05/29 10:06:52;;;;;;;10.40;5.43;;;;;;;;;;5071109;28;20535;-61
2022/05/29 10:09:21;;;;;;;26.23;11.32;;;;;;;;;;5076830;28;20044;-61
2022/05/29 10:11:49;;;;;;;9.38;6.43;;;;;;;;;;5073701;28;20027;-61
2022/05/29 10:14:35;;;;;;;18.67;8.85;;;;;;;;;;5072825;28;20108;-61
2022/05/29 10:17:01;;;;;;;15.35;6.88;;;;;;;;;;5069637;28;20020;-61
2022/05/29 10:19:39;;;;;;;8.23;4.75;;;;;;;;;;5074084;28;20031;-61
2022/05/29 10:22:38;;;;;;;11.02;5.35;;;;;;;;;;5068831;28;20021;-60
2022/05/29 10:25:22;;;;;;;9.10;5.33;;;;;;;;;;5070963;28;20039;-61
2022/05/29 10:27:50;;;;;;;10.40;4.63;;;;;;;;;;5069442;28;20016;-60
2022/05/29 10:30:32;;;;;;;11.82;5.00;;;;;;;;;;5069380;28;20029;-59
2022/05/29 10:33:11;;;;;;;11.05;4.35;;;;;;;;;;5062976;28;20032;-59
2022/05/29 10:35:41;;;;;;;7.57;4.43;;;;;;;;;;5069375;28;20028;-59
2022/05/29 10:38:25;;;;;;;9.27;4.93;;;;;;;;;;5069442;28;20107;-60
2022/05/29 10:40:53;;;;;;;8.68;4.80;;;;;;;;;;5064500;28;20025;-61
2022/05/29 10:43:46;;;;;;;10.23;4.87;;;;;;;;;;5068153;28;20388;-60
2022/05/29 10:46:18;;;;;;;13.65;5.20;;;;;;;;;;5067259;28;20039;-60
2022/05/29 10:48:49;;;;;;;7.55;4.78;;;;;;;;;;5065497;28;20462;-60
2022/05/29 10:51:23;;;;;;;28.52;8.13;;;;;;;;;;5066244;28;20135;-60
2022/05/29 10:54:42;;;;;;;10.20;5.22;;;;;;;;;;5069443;28;20032;-59
2022/05/29 10:57:10;;;;;;;4.90;3.20;;;;;;;;;;5046787;28;20036;-59
2022/05/29 11:00:06;;;;;;;9.43;5.10;;;;;;;;;;5045675;28;20029;-59
2022/05/29 11:06:01;;;;;;;12.15;5.95;;;;;;;;;;5071586;28;20047;-59
2022/05/29 11:08:42;;;;;;;5.43;3.05;;;;;;;;;;5069319;28;20364;-59
2022/05/29 11:11:10;;;;;;;7.18;3.65;;;;;;;;;;5066384;28;20017;-60
2022/05/29 11:14:00;;;;;;;4.70;3.83;;;;;;;;;;5065032;28;20030;-60
2022/05/29 11:16:29;;;;;;;4.93;3.67;;;;;;;;;;5064891;28;20271;-60
2022/05/29 11:19:16;;;;;;;6.90;4.00;;;;;;;;;;5072020;28;20036;-59
2022/05/29 11:22:17;;;;;;;5.47;2.80;;;;;;;;;;5071531;28;20646;-60
2022/05/29 11:24:54;;;;;;;5.20;3.10;;;;;;;;;;5056532;28;20075;-59
2022/05/29 11:27:41;;;;;;;14.40;4.75;;;;;;;;;;5072725;28;20021;-59
2022/05/29 11:30:48;;;;;;;9.32;3.53;;;;;;;;;;5063498;28;20118;-59
2022/05/29 11:33:31;;;;;;;8.88;3.33;;;;;;;;;;5064377;28;20094;-59
2022/05/29 11:36:15;;;;;;;8.48;3.42;;;;;;;;;;5058495;28;20486;-59
2022/05/29 11:39:05;;;;;;;10.75;3.78;;;;;;;;;;5063981;28;20514;-59
2022/05/29 11:41:39;;;;;;;13.50;4.63;;;;;;;;;;5060641;28;20009;-59
2022/05/29 11:44:34;;;;;;;10.80;4.43;;;;;;;;;;5064154;28;20043;-59
2022/05/29 11:53:56;;;;;;;9.32;4.03;;;;;;;;;;5071245;28;20036;-59
2022/05/29 11:56:30;;;;;;;6.10;3.10;;;;;;;;;;5067981;28;20032;-59
2022/05/29 11:59:11;;;;;;;5.38;3.22;;;;;;;;;;5068350;28;20396;-59
2022/05/29 12:01:40;;;;;;;10.70;4.22;;;;;;;;;;5069266;28;20417;-59
2022/05/29 12:04:13;;;;;;;7.20;3.70;;;;;;;;;;5071368;28;20024;-59
2022/05/29 12:06:41;;;;;;;7.85;3.90;;;;;;;;;;5070509;28;20125;-58
2022/05/29 12:09:33;;;;;;;33.58;9.23;;;;;;;;;;5073434;28;20138;-58
2022/05/29 12:12:15;;;;;;;20.83;6.88;;;;;;;;;;5068234;28;20035;-58
2022/05/29 12:15:02;;;;;;;10.43;5.10;;;;;;;;;;5069247;28;20368;-58
2022/05/29 12:17:39;;;;;;;4.28;2.92;;;;;;;;;;5073770;28;20036;-58
2022/05/29 12:20:18;;;;;;;12.38;4.18;;;;;;;;;;5063939;28;20367;-58
2022/05/29 12:22:56;;;;;;;11.47;4.60;;;;;;;;;;5069535;28;20031;-58
2022/05/29 12:25:34;;;;;;;13.90;4.90;;;;;;;;;;5063737;28;20442;-58
2022/05/29 12:28:24;;;;;;;11.50;4.05;;;;;;;;;;5067876;28;20472;-58
2022/05/29 12:30:52;;;;;;;7.95;4.00;;;;;;;;;;5072439;28;20024;-58
2022/05/29 12:33:22;;;;;;;9.02;3.83;;;;;;;;;;5069974;28;20391;-59
2022/05/29 12:35:56;;;;;;;4.22;2.47;;;;;;;;;;5063727;28;20111;-58
2022/05/29 12:38:51;;;;;;;4.53;2.50;;;;;;;;;;5062696;28;20023;-59
2022/05/29 12:41:24;;;;;;;4.70;2.60;;;;;;;;;;5062332;28;20016;-58
2022/05/29 12:43:55;;;;;;;9.10;3.40;;;;;;;;;;5060192;28;20442;-59
2022/05/29 12:46:39;;;;;;;7.68;3.63;;;;;;;;;;5061334;28;20484;-58
2022/05/29 12:49:38;;;;;;;18.70;6.43;;;;;;;;;;5068142;28;20396;-58
2022/05/29 12:52:17;;;;;;;7.70;3.40;;;;;;;;;;5063469;28;20024;-60
2022/05/29 12:55:03;;;;;;;6.78;2.97;;;;;;;;;;5068443;28;20024;-59
2022/05/29 12:58:12;;;;;;;2.60;2.15;;;;;;;;;;5068940;28;20020;-59
2022/05/29 13:01:01;;;;;;;4.97;2.80;;;;;;;;;;5070049;28;20483;-60
2022/05/29 13:03:31;;;;;;;6.20;2.42;;;;;;;;;;5067829;28;20050;-59
2022/05/29 13:06:42;;;;;;;18.92;6.22;;;;;;;;;;5069717;28;20013;-59
2022/05/29 13:09:13;;;;;;;8.23;3.58;;;;;;;;;;5067020;28;20337;-59
2022/05/29 13:11:46;;;;;;;4.25;1.98;;;;;;;;;;5067795;28;20040;-59
2022/05/29 13:14:16;;;;;;;5.60;2.40;;;;;;;;;;5071409;28;20035;-59
2022/05/29 13:16:44;;;;;;;9.10;3.47;;;;;;;;;;5052556;28;20500;-58
2022/05/29 13:19:19;;;;;;;6.38;2.30;;;;;;;;;;5055217;28;20027;-59
2022/05/29 13:21:54;;;;;;;3.40;2.00;;;;;;;;;;5057981;28;20321;-59
2022/05/29 13:24:26;;;;;;;4.05;2.60;;;;;;;;;;5068842;28;20123;-58
2022/05/29 13:27:12;;;;;;;6.72;3.38;;;;;;;;;;5066735;28;20090;-59
2022/05/29 13:29:43;;;;;;;3.17;1.88;;;;;;;;;;5069508;28;20119;-58
2022/05/29 13:32:14;;;;;;;5.70;2.85;;;;;;;;;;5077207;28;20020;-58
2022/05/29 13:34:45;;;;;;;7.25;4.45;;;;;;;;;;5070361;28;20043;-59
2022/05/29 13:37:32;;;;;;;2.85;1.92;;;;;;;;;;5058229;28;20021;-59
2022/05/29 13:40:06;;;;;;;2.50;1.52;;;;;;;;;;5053079;28;20012;-58
2022/05/29 13:42:50;;;;;;;3.50;2.17;;;;;;;;;;5053129;28;20044;-60
2022/05/29 13:45:19;;;;;;;6.32;3.28;;;;;;;;;;5063518;28;20170;-59
2022/05/29 13:47:48;;;;;;;1.80;1.48;;;;;;;;;;5052697;28;20033;-59
2022/05/29 13:50:14;;;;;;;;;;;;;;;;;;5052693;28;20032;-59
2022/05/29 13:52:42;;;;;;;2.97;2.10;;;;;;;;;;5053274;28;19908;-59
2022/05/29 13:55:30;;;;;;;2.35;1.60;;;;;;;;;;5058008;28;20036;-59
2022/05/29 14:04:00;;;;;;;0.93;0.90;;;;;;;;;;5067051;28;20097;-59
2022/05/29 14:06:27;;;;;;;3.58;1.10;;;;;;;;;;5059492;28;20044;-59
2022/05/29 14:09:23;;;;;;;1.45;1.00;;;;;;;;;;5066579;28;20255;-59
2022/05/29 14:11:51;;;;;;;2.28;1.08;;;;;;;;;;5029938;28;20033;-59
2022/05/29 14:14:35;;;;;;;2.08;1.30;;;;;;;;;;5059639;28;20025;-59
2022/05/29 14:17:33;;;;;;;1.20;1.00;;;;;;;;;;5061837;28;20024;-59
2022/05/29 14:20:20;;;;;;;1.55;1.00;;;;;;;;;;5063621;28;20017;-59
2022/05/29 14:22:57;;;;;;;2.25;1.10;;;;;;;;;;5063009;28;20031;-59
2022/05/29 14:25:57;;;;;;;1.35;1.17;;;;;;;;;;5062435;28;20170;-59
2022/05/29 14:28:44;;;;;;;1.48;1.30;;;;;;;;;;5065793;28;20024;-59
2022/05/29 14:31:28;;;;;;;2.35;1.30;;;;;;;;;;5060915;28;20012;-59
2022/05/29 14:34:35;;;;;;;1.92;1.10;;;;;;;;;;5063930;28;20025;-59
2022/05/29 14:37:38;;;;;;;3.88;1.52;;;;;;;;;;5061668;28;20020;-59
2022/05/29 14:40:23;;;;;;;2.72;1.20;;;;;;;;;;5053556;28;20100;-59
2022/05/29 14:42:51;;;;;;;2.70;1.80;;;;;;;;;;5056002;28;20514;-58
2022/05/29 14:45:21;;;;;;;21.60;11.18;;;;;;;;;;5054113;28;20028;-58
2022/05/29 14:47:56;;;;;;;7.95;3.65;;;;;;;;;;5061748;28;20032;-59
2022/05/29 14:50:33;;;;;;;6.07;3.05;;;;;;;;;;5063675;28;20057;-59
2022/05/29 14:53:10;;;;;;;2.15;1.40;;;;;;;;;;5054669;28;20435;-58
2022/05/29 14:55:56;;;;;;;1.50;1.00;;;;;;;;;;5056859;28;20028;-58
2022/05/29 14:58:29;;;;;;;1.63;1.00;;;;;;;;;;5062783;28;20083;-59
2022/05/29 15:01:28;;;;;;;1.95;1.40;;;;;;;;;;5058457;28;20024;-59
2022/05/29 15:03:57;;;;;;;1.55;1.02;;;;;;;;;;5046804;28;20576;-59
2022/05/29 15:12:06;;;;;;;3.28;1.27;;;;;;;;;;5072301;28;20402;-60
2022/05/29 15:14:32;;;;;;;2.03;1.17;;;;;;;;;;5074216;28;20109;-59
2022/05/29 15:17:01;;;;;;;2.25;1.30;;;;;;;;;;5067073;28;20055;-59
2022/05/29 15:25:12;;;;;;;1.95;1.20;;;;;;;;;;5061121;28;20127;-59
2022/05/29 15:27:42;;;;;;;2.95;1.58;;;;;;;;;;5065176;28;20029;-58
2022/05/29 15:30:12;;;;;;;1.92;1.48;;;;;;;;;;5066442;28;20022;-58
2022/05/29 15:32:40;;;;;;;6.30;1.52;;;;;;;;;;5056275;28;20155;-59
2022/05/29 15:35:21;;;;;;;2.25;1.65;;;;;;;;;;5050039;28;20812;-58
2022/05/29 15:37:52;;;;;;;1.13;0.93;;;;;;;;;;5056299;28;20387;-58
2022/05/29 15:40:41;;;;;;;3.05;1.52;;;;;;;;;;5058702;28;20467;-60
2022/05/29 15:43:48;;;;;;;5.20;2.42;;;;;;;;;;5052812;28;20062;-58
2022/05/29 15:46:32;;;;;;;2.90;1.80;;;;;;;;;;5071583;28;20040;-59
2022/05/29 15:49:32;;;;;;;2.83;1.40;;;;;;;;;;5064844;28;20060;-58
2022/05/29 15:52:06;;;;;;;4.22;1.63;;;;;;;;;;5053349;28;20040;-59
2022/05/29 15:55:24;;;;;;;3.75;1.77;;;;;;;;;;5069395;28;20020;-59
2022/05/29 15:57:52;;;;;;;1.85;1.42;;;;;;;;;;5056587;28;20398;-58
2022/05/29 16:00:26;;;;;;;2.92;1.70;;;;;;;;;;5069102;28;20054;-59
2022/05/29 16:03:04;;;;;;;6.97;2.70;;;;;;;;;;5066356;28;20082;-58
2022/05/29 16:05:30;;;;;;;7.93;2.73;;;;;;;;;;5062628;28;20035;-59
2022/05/29 16:08:16;;;;;;;5.85;2.83;;;;;;;;;;5065991;28;20282;-59
2022/05/29 16:10:43;;;;;;;25.40;8.23;;;;;;;;;;5071796;28;20032;-59
2022/05/29 16:13:08;;;;;;;7.57;2.97;;;;;;;;;;5069002;28;20141;-59
2022/05/29 16:15:40;;;;;;;30.05;9.07;;;;;;;;;;5075595;28;20122;-59